sensor_id;sensor_type;location;lat;lon;timestamp;pressure;altitude;pressure_sealevel;temperature;humidity
15229;BME280;7717;47.792;12.076;2023-03-20T00:01:35;96365.31;;;9.98;100.00
15229;BME280;7717;47.792;12.076;2023-03-20T00:04:00;96362.75;;;9.95;100.00
15229;BME280;7717;47.792;12.076;2023-03-20T00:06:26;96362.75;;;9.95;100.00
15229;BME280;7717;47.792;12.076;2023-03-20T00:08:55;96365.28;;;9.86;100.00
15229;BME280;7717;47.792;12.076;2023-03-20T00:11:27;96367.84;;;9.90;100.00
15229;BME280;7717;47.792;12.076;2023-03-20T00:13:55;96353.38;;;9.83;100.00
15229;BME280;7717;47.792;12.076;2023-03-20T00:16:23;96354.22;;;9.84;100.00
15229;BME280;7717;47.792;12.076;2023-03-20T00:18:49;96374.69;;;10.02;100.00
15229;BME280;7717;47.792;12.076;2023-03-20T00:21:18;96364.47;;;9.99;100.00
15229;BME280;7717;47.792;12.076;2023-03-20T00:23:44;96370.41;;;9.98;100.00
15229;BME280;7717;47.792;12.076;2023-03-20T00:26:14;96371.25;;;9.76;100.00
15229;BME280;7717;47.792;12.076;2023-03-20T00:28:44;96363.59;;;9.85;100.00
15229;BME280;7717;47.792;12.076;2023-03-20T00:31:19;96368.72;;;9.91;100.00
15229;BME280;7717;47.792;12.076;2023-03-20T00:33:45;96369.56;;;9.96;100.00
15229;BME280;7717;47.792;12.076;2023-03-20T00:36:11;96367.00;;;9.88;100.00
15229;BME280;7717;47.792;12.076;2023-03-20T00:38:36;96373.84;;;10.00;100.00
15229;BME280;7717;47.792;12.076;2023-03-20T00:41:02;96374.69;;;9.99;100.00
15229;BME280;7717;47.792;12.076;2023-03-20T00:43:39;96373.84;;;9.96;100.00
15229;BME280;7717;47.792;12.076;2023-03-20T00:46:10;96367.00;;;9.88;100.00
15229;BME280;7717;47.792;12.076;2023-03-20T00:48:37;96372.13;;;9.84;100.00
15229;BME280;7717;47.792;12.076;2023-03-20T00:51:04;96373.81;;;9.76;100.00
15229;BME280;7717;47.792;12.076;2023-03-20T00:53:30;96378.06;;;9.75;100.00
15229;BME280;7717;47.792;12.076;2023-03-20T00:55:55;96372.13;;;9.87;100.00
15229;BME280;7717;47.792;12.076;2023-03-20T00:58:20;96367.00;;;9.93;100.00
15229;BME280;7717;47.792;12.076;2023-03-20T01:00:46;96367.84;;;9.92;100.00
15229;BME280;7717;47.792;12.076;2023-03-20T01:03:16;96365.28;;;9.84;100.00
15229;BME280;7717;47.792;12.076;2023-03-20T01:05:43;96361.88;;;9.78;100.00
15229;BME280;7717;47.792;12.076;2023-03-20T01:08:15;96367.00;;;9.87;100.00
15229;BME280;7717;47.792;12.076;2023-03-20T01:10:42;96367.00;;;9.87;100.00
15229;BME280;7717;47.792;12.076;2023-03-20T01:13:23;96362.75;;;9.87;100.00
15229;BME280;7717;47.792;12.076;2023-03-20T01:15:49;96365.28;;;9.83;100.00
15229;BME280;7717;47.792;12.076;2023-03-20T01:18:16;96346.53;;;9.65;100.00
15229;BME280;7717;47.792;12.076;2023-03-20T01:20:42;96362.72;;;9.80;100.00
15229;BME280;7717;47.792;12.076;2023-03-20T01:23:08;96361.88;;;9.71;100.00
15229;BME280;7717;47.792;12.076;2023-03-20T01:25:33;96360.16;;;9.75;100.00
15229;BME280;7717;47.792;12.076;2023-03-20T01:27:59;96357.63;;;9.64;100.00
15229;BME280;7717;47.792;12.076;2023-03-20T01:30:28;96361.84;;;9.61;100.00
15229;BME280;7717;47.792;12.076;2023-03-20T01:32:54;96361.88;;;9.70;100.00
15229;BME280;7717;47.792;12.076;2023-03-20T01:35:23;96365.25;;;9.49;100.00
15229;BME280;7717;47.792;12.076;2023-03-20T01:37:50;96361.81;;;9.47;100.00
15229;BME280;7717;47.792;12.076;2023-03-20T01:40:39;96363.56;;;9.57;100.00
15229;BME280;7717;47.792;12.076;2023-03-20T01:43:16;96361.81;;;9.53;100.00
15229;BME280;7717;47.792;12.076;2023-03-20T01:51:27;96358.41;;;9.43;100.00
15229;BME280;7717;47.792;12.076;2023-03-20T01:54:13;96360.13;;;9.43;100.00
15229;BME280;7717;47.792;12.076;2023-03-20T01:56:44;96356.69;;;9.39;100.00
15229;BME280;7717;47.792;12.076;2023-03-20T01:59:21;96362.66;;;9.33;100.00
15229;BME280;7717;47.792;12.076;2023-03-20T02:01:48;96345.59;;;9.35;100.00
15229;BME280;7717;47.792;12.076;2023-03-20T02:04:14;96360.97;;;9.46;100.00
15229;BME280;7717;47.792;12.076;2023-03-20T02:06:41;96350.75;;;9.46;100.00
15229;BME280;7717;47.792;12.076;2023-03-20T02:09:09;96358.44;;;9.51;100.00
15229;BME280;7717;47.792;12.076;2023-03-20T02:11:36;96356.69;;;9.47;100.00
15229;BME280;7717;47.792;12.076;2023-03-20T02:14:03;96356.69;;;9.47;100.00
15229;BME280;7717;47.792;12.076;2023-03-20T02:16:28;96355.03;;;9.46;100.00
15229;BME280;7717;47.792;12.076;2023-03-20T02:18:55;96363.53;;;9.52;100.00
15229;BME280;7717;47.792;12.076;2023-03-20T02:27:32;96367.81;;;9.49;100.00
15229;BME280;7717;47.792;12.076;2023-03-20T02:33:09;96365.22;;;9.43;100.00
15229;BME280;7717;47.792;12.076;2023-03-20T02:41:30;96360.97;;;9.45;100.00
15229;BME280;7717;47.792;12.076;2023-03-20T02:44:05;96359.25;;;9.41;100.00
15229;BME280;7717;47.792;12.076;2023-03-20T02:46:47;96363.53;;;9.45;100.00
15229;BME280;7717;47.792;12.076;2023-03-20T02:49:21;96352.47;;;9.44;100.00
15229;BME280;7717;47.792;12.076;2023-03-20T02:52:00;96353.31;;;9.48;100.00
15229;BME280;7717;47.792;12.076;2023-03-20T03:00:21;96350.72;;;9.40;100.00
15229;BME280;7717;47.792;12.076;2023-03-20T03:05:33;96355.88;;;9.54;100.00
15229;BME280;7717;47.792;12.076;2023-03-20T03:08:02;96358.44;;;9.52;100.00
15229;BME280;7717;47.792;12.076;2023-03-20T03:10:33;96351.59;;;9.48;100.00
15229;BME280;7717;47.792;12.076;2023-03-20T03:13:00;96355.03;;;9.55;100.00
15229;BME280;7717;47.792;12.076;2023-03-20T03:15:34;96353.28;;;9.37;100.00
15229;BME280;7717;47.792;12.076;2023-03-20T03:18:02;96357.59;;;9.50;100.00
15229;BME280;7717;47.792;12.076;2023-03-20T03:20:33;96358.44;;;9.52;100.00
15229;BME280;7717;47.792;12.076;2023-03-20T03:23:01;96357.59;;;9.55;100.00
15229;BME280;7717;47.792;12.076;2023-03-20T03:25:29;96362.66;;;9.43;100.00
15229;BME280;7717;47.792;12.076;2023-03-20T03:28:04;96361.81;;;9.47;100.00
15229;BME280;7717;47.792;12.076;2023-03-20T03:30:33;96359.25;;;9.45;100.00
15229;BME280;7717;47.792;12.076;2023-03-20T03:33:12;96361.81;;;9.44;100.00
15229;BME280;7717;47.792;12.076;2023-03-20T03:35:42;96360.97;;;9.45;100.00
15229;BME280;7717;47.792;12.076;2023-03-20T03:40:52;96369.50;;;9.51;100.00
15229;BME280;7717;47.792;12.076;2023-03-20T03:43:33;96361.81;;;9.53;100.00
15229;BME280;7717;47.792;12.076;2023-03-20T03:48:38;96363.56;;;9.57;100.00
15229;BME280;7717;47.792;12.076;2023-03-20T03:51:08;96366.94;;;9.56;100.00
15229;BME280;7717;47.792;12.076;2023-03-20T03:53:39;96360.16;;;9.58;100.00
15229;BME280;7717;47.792;12.076;2023-03-20T03:56:10;96363.53;;;9.51;100.00
15229;BME280;7717;47.792;12.076;2023-03-20T03:58:58;96376.28;;;9.42;100.00
15229;BME280;7717;47.792;12.076;2023-03-20T04:01:26;96378.84;;;9.45;100.00
15229;BME280;7717;47.792;12.076;2023-03-20T04:03:57;96370.38;;;9.53;100.00
15229;BME280;7717;47.792;12.076;2023-03-20T04:06:26;96377.19;;;9.65;100.00
15229;BME280;7717;47.792;12.076;2023-03-20T04:08:51;96380.63;;;9.67;100.00
15229;BME280;7717;47.792;12.076;2023-03-20T04:11:24;96384.84;;;9.56;100.00
15229;BME280;7717;47.792;12.076;2023-03-20T04:13:51;96379.72;;;9.58;100.00
15229;BME280;7717;47.792;12.076;2023-03-20T04:16:18;96383.16;;;9.58;100.00
15229;BME280;7717;47.792;12.076;2023-03-20T04:18:44;96392.47;;;9.47;100.00
15229;BME280;7717;47.792;12.076;2023-03-20T04:21:10;96391.63;;;9.48;100.00
15229;BME280;7717;47.792;12.076;2023-03-20T04:23:36;96394.19;;;9.48;100.00
15229;BME280;7717;47.792;12.076;2023-03-20T04:26:02;96397.53;;;9.22;100.00
15229;BME280;7717;47.792;12.076;2023-03-20T04:28:28;96401.00;;;9.43;100.00
15229;BME280;7717;47.792;12.076;2023-03-20T04:30:54;96389.09;;;9.52;100.00
15229;BME280;7717;47.792;12.076;2023-03-20T04:33:21;96389.09;;;9.57;100.00
15229;BME280;7717;47.792;12.076;2023-03-20T04:35:46;96395.94;;;9.55;100.00
15229;BME280;7717;47.792;12.076;2023-03-20T04:38:12;96401.88;;;9.57;100.00
15229;BME280;7717;47.792;12.076;2023-03-20T04:40:37;96400.19;;;9.59;100.00
15229;BME280;7717;47.792;12.076;2023-03-20T04:43:03;96398.50;;;9.58;100.00
15229;BME280;7717;47.792;12.076;2023-03-20T04:45:29;96404.44;;;9.54;100.00
15229;BME280;7717;47.792;12.076;2023-03-20T04:47:54;96402.72;;;9.54;100.00
15229;BME280;7717;47.792;12.076;2023-03-20T04:50:20;96403.59;;;9.57;100.00
15229;BME280;7717;47.792;12.076;2023-03-20T04:52:45;96418.88;;;9.44;100.00
15229;BME280;7717;47.792;12.076;2023-03-20T04:55:11;96416.38;;;9.57;100.00
15229;BME280;7717;47.792;12.076;2023-03-20T04:57:36;96420.63;;;9.61;100.00
15229;BME280;7717;47.792;12.076;2023-03-20T05:00:02;96416.38;;;9.60;100.00
15229;BME280;7717;47.792;12.076;2023-03-20T05:02:28;96420.63;;;9.64;100.00
15229;BME280;7717;47.792;12.076;2023-03-20T05:04:54;96430.84;;;9.58;100.00
15229;BME280;7717;47.792;12.076;2023-03-20T05:07:20;96421.50;;;9.64;100.00
15229;BME280;7717;47.792;12.076;2023-03-20T05:09:46;96440.25;;;9.63;100.00
15229;BME280;7717;47.792;12.076;2023-03-20T05:12:12;96438.50;;;9.56;100.00
15229;BME280;7717;47.792;12.076;2023-03-20T05:14:37;96427.31;;;9.26;100.00
15229;BME280;7717;47.792;12.076;2023-03-20T05:17:02;96443.53;;;9.41;100.00
15229;BME280;7717;47.792;12.076;2023-03-20T05:19:28;96449.50;;;9.36;100.00
15229;BME280;7717;47.792;12.076;2023-03-20T05:21:53;96444.38;;;9.30;100.00
15229;BME280;7717;47.792;12.076;2023-03-20T05:24:19;96444.34;;;9.27;100.00
15229;BME280;7717;47.792;12.076;2023-03-20T05:26:45;96444.38;;;9.32;100.00
15229;BME280;7717;47.792;12.076;2023-03-20T05:29:11;96445.13;;;9.15;100.00
15229;BME280;7717;47.792;12.076;2023-03-20T05:31:36;96451.13;;;9.17;100.00
15229;BME280;7717;47.792;12.076;2023-03-20T05:34:01;96455.38;;;9.22;100.00
15229;BME280;7717;47.792;12.076;2023-03-20T05:36:27;96454.53;;;9.21;100.00
15229;BME280;7717;47.792;12.076;2023-03-20T05:38:52;96438.38;;;9.19;100.00
15229;BME280;7717;47.792;12.076;2023-03-20T05:41:18;96455.41;;;9.25;100.00
15229;BME280;7717;47.792;12.076;2023-03-20T05:43:43;96440.03;;;9.15;100.00
15229;BME280;7717;47.792;12.076;2023-03-20T05:46:09;96458.81;;;9.22;100.00
15229;BME280;7717;47.792;12.076;2023-03-20T05:48:35;96457.09;;;9.23;100.00
15229;BME280;7717;47.792;12.076;2023-03-20T05:51:01;96459.63;;;9.18;100.00
15229;BME280;7717;47.792;12.076;2023-03-20T05:53:26;96453.72;;;9.22;100.00
15229;BME280;7717;47.792;12.076;2023-03-20T05:55:52;96457.91;;;9.18;100.00
15229;BME280;7717;47.792;12.076;2023-03-20T05:58:17;96464.75;;;9.19;100.00
15229;BME280;7717;47.792;12.076;2023-03-20T06:00:42;96466.41;;;9.13;100.00
15229;BME280;7717;47.792;12.076;2023-03-20T06:03:08;96464.75;;;9.21;100.00
15229;BME280;7717;47.792;12.076;2023-03-20T06:05:34;96472.41;;;9.21;100.00
15229;BME280;7717;47.792;12.076;2023-03-20T06:08:01;96469.88;;;9.23;100.00
15229;BME280;7717;47.792;12.076;2023-03-20T06:10:26;96479.19;;;9.13;100.00
15229;BME280;7717;47.792;12.076;2023-03-20T06:12:52;96480.91;;;9.20;100.00
15229;BME280;7717;47.792;12.076;2023-03-20T06:15:18;96480.91;;;9.20;100.00
15229;BME280;7717;47.792;12.076;2023-03-20T06:17:43;96485.19;;;9.21;100.00
15229;BME280;7717;47.792;12.076;2023-03-20T06:20:09;96488.59;;;9.23;100.00
15229;BME280;7717;47.792;12.076;2023-03-20T06:22:35;96489.47;;;9.22;100.00
15229;BME280;7717;47.792;12.076;2023-03-20T06:25:00;96495.38;;;9.18;100.00
15229;BME280;7717;47.792;12.076;2023-03-20T06:27:26;96498.00;;;9.26;100.00
15229;BME280;7717;47.792;12.076;2023-03-20T06:29:51;96493.75;;;9.29;100.00
15229;BME280;7717;47.792;12.076;2023-03-20T06:32:17;96493.72;;;9.28;100.00
15229;BME280;7717;47.792;12.076;2023-03-20T06:34:42;96506.53;;;9.34;100.00
15229;BME280;7717;47.792;12.076;2023-03-20T06:37:08;96503.16;;;9.40;100.00
15229;BME280;7717;47.792;12.076;2023-03-20T06:39:34;96500.63;;;9.40;100.00
15229;BME280;7717;47.792;12.076;2023-03-20T06:42:01;96500.59;;;9.38;100.00
15229;BME280;7717;47.792;12.076;2023-03-20T06:44:26;96489.50;;;9.28;100.00
15229;BME280;7717;47.792;12.076;2023-03-20T06:46:52;96504.88;;;9.42;100.00
15229;BME280;7717;47.792;12.076;2023-03-20T06:49:17;96511.75;;;9.54;100.00
15229;BME280;7717;47.792;12.076;2023-03-20T06:51:43;96515.19;;;9.62;100.00
15229;BME280;7717;47.792;12.076;2023-03-20T06:54:09;96522.91;;;9.73;100.00
15229;BME280;7717;47.792;12.076;2023-03-20T06:56:34;96516.97;;;9.76;100.00
15229;BME280;7717;47.792;12.076;2023-03-20T06:59:00;96520.34;;;9.75;100.00
15229;BME280;7717;47.792;12.076;2023-03-20T07:01:25;96523.78;;;9.86;100.00
15229;BME280;7717;47.792;12.076;2023-03-20T07:03:51;96523.78;;;9.86;100.00
15229;BME280;7717;47.792;12.076;2023-03-20T07:06:17;96525.53;;;9.93;100.00
15229;BME280;7717;47.792;12.076;2023-03-20T07:08:43;96528.91;;;9.87;100.00
15229;BME280;7717;47.792;12.076;2023-03-20T07:11:09;96528.88;;;9.80;100.00
15229;BME280;7717;47.792;12.076;2023-03-20T07:13:35;96532.28;;;9.74;100.00
15229;BME280;7717;47.792;12.076;2023-03-20T07:16:00;96534.06;;;9.92;100.00
15229;BME280;7717;47.792;12.076;2023-03-20T07:18:27;96539.22;;;10.04;100.00
15229;BME280;7717;47.792;12.076;2023-03-20T07:20:58;96540.09;;;10.05;100.00
15229;BME280;7717;47.792;12.076;2023-03-20T07:23:24;96537.56;;;10.13;100.00
15229;BME280;7717;47.792;12.076;2023-03-20T07:25:49;96541.81;;;10.20;100.00
15229;BME280;7717;47.792;12.076;2023-03-20T07:28:15;96535.84;;;10.18;100.00
15229;BME280;7717;47.792;12.076;2023-03-20T07:30:40;96540.13;;;10.28;100.00
15229;BME280;7717;47.792;12.076;2023-03-20T07:33:06;96536.78;;;10.40;100.00
15229;BME280;7717;47.792;12.076;2023-03-20T07:35:31;96541.88;;;10.37;100.00
15229;BME280;7717;47.792;12.076;2023-03-20T07:37:57;96544.41;;;10.29;100.00
15229;BME280;7717;47.792;12.076;2023-03-20T07:40:23;96540.13;;;10.26;100.00
15229;BME280;7717;47.792;12.076;2023-03-20T07:42:48;96536.78;;;10.40;100.00
15229;BME280;7717;47.792;12.076;2023-03-20T07:45:14;96548.72;;;10.55;100.00
15229;BME280;7717;47.792;12.076;2023-03-20T07:47:41;96547.91;;;10.87;100.00
15229;BME280;7717;47.792;12.076;2023-03-20T07:50:07;96552.19;;;10.92;100.00
15229;BME280;7717;47.792;12.076;2023-03-20T07:52:32;96550.47;;;10.90;100.00
15229;BME280;7717;47.792;12.076;2023-03-20T07:54:57;96549.63;;;10.91;100.00
15229;BME280;7717;47.792;12.076;2023-03-20T07:57:23;96555.59;;;10.99;100.00
15229;BME280;7717;47.792;12.076;2023-03-20T07:59:49;96557.28;;;10.95;100.00
15229;BME280;7717;47.792;12.076;2023-03-20T08:02:15;96559.00;;;11.27;100.00
15229;BME280;7717;47.792;12.076;2023-03-20T08:04:42;96557.22;;;11.56;100.00
15229;BME280;7717;47.792;12.076;2023-03-20T08:07:08;96558.03;;;11.67;100.00
15229;BME280;7717;47.792;12.076;2023-03-20T08:09:33;96553.84;;;11.35;100.00
15229;BME280;7717;47.792;12.076;2023-03-20T08:11:59;96558.91;;;11.64;100.00
15229;BME280;7717;47.792;12.076;2023-03-20T08:14:24;96559.78;;;11.59;100.00
15229;BME280;7717;47.792;12.076;2023-03-20T08:16:49;96558.91;;;11.72;100.00
15229;BME280;7717;47.792;12.076;2023-03-20T08:19:15;96554.56;;;11.99;100.00
15229;BME280;7717;47.792;12.076;2023-03-20T08:21:40;96557.19;;;11.73;100.00
15229;BME280;7717;47.792;12.076;2023-03-20T08:24:06;96548.50;;;12.07;100.00
15229;BME280;7717;47.792;12.076;2023-03-20T08:26:36;96552.72;;;12.22;100.00
15229;BME280;7717;47.792;12.076;2023-03-20T08:29:01;96550.19;;;12.15;100.00
15229;BME280;7717;47.792;12.076;2023-03-20T08:31:27;96551.78;;;12.37;100.00
15229;BME280;7717;47.792;12.076;2023-03-20T08:33:52;96557.72;;;12.47;100.00
15229;BME280;7717;47.792;12.076;2023-03-20T08:36:19;96552.59;;;12.50;100.00
15229;BME280;7717;47.792;12.076;2023-03-20T08:38:48;96555.94;;;12.62;100.00
15229;BME280;7717;47.792;12.076;2023-03-20T08:41:14;96555.16;;;12.50;100.00
15229;BME280;7717;47.792;12.076;2023-03-20T08:43:39;96551.78;;;12.39;100.00
15229;BME280;7717;47.792;12.076;2023-03-20T08:46:05;96552.31;;;12.84;100.00
15229;BME280;7717;47.792;12.076;2023-03-20T08:48:31;96551.31;;;13.07;100.00
15229;BME280;7717;47.792;12.076;2023-03-20T08:50:57;96551.97;;;13.26;100.00
15229;BME280;7717;47.792;12.076;2023-03-20T08:53:22;96546.78;;;13.37;100.00
15229;BME280;7717;47.792;12.076;2023-03-20T08:55:51;96545.97;;;13.33;100.00
15229;BME280;7717;47.792;12.076;2023-03-20T08:58:18;96545.72;;;13.55;100.00
15229;BME280;7717;47.792;12.076;2023-03-20T09:00:43;96542.19;;;13.65;100.00
15229;BME280;7717;47.792;12.076;2023-03-20T09:03:17;96548.22;;;13.62;100.00
15229;BME280;7717;47.792;12.076;2023-03-20T09:05:44;96525.22;;;13.47;100.00
15229;BME280;7717;47.792;12.076;2023-03-20T09:08:10;96538.13;;;13.41;100.00
15229;BME280;7717;47.792;12.076;2023-03-20T09:10:36;96549.38;;;13.34;100.00
15229;BME280;7717;47.792;12.076;2023-03-20T09:13:01;96546.66;;;13.47;100.00
15229;BME280;7717;47.792;12.076;2023-03-20T09:15:27;96539.25;;;13.97;100.00
15229;BME280;7717;47.792;12.076;2023-03-20T09:17:53;96536.31;;;14.23;100.00
15229;BME280;7717;47.792;12.076;2023-03-20T09:20:18;96523.56;;;14.76;100.00
15229;BME280;7717;47.792;12.076;2023-03-20T09:22:44;96522.41;;;15.46;100.00
15229;BME280;7717;47.792;12.076;2023-03-20T09:25:10;96520.34;;;14.64;100.00
15229;BME280;7717;47.792;12.076;2023-03-20T09:27:36;96516.16;;;15.56;100.00
15229;BME280;7717;47.792;12.076;2023-03-20T09:30:03;96511.75;;;16.08;100.00
15229;BME280;7717;47.792;12.076;2023-03-20T09:32:28;96513.28;;;16.17;100.00
15229;BME280;7717;47.792;12.076;2023-03-20T09:34:54;96517.38;;;16.65;100.00
15229;BME280;7717;47.792;12.076;2023-03-20T09:37:20;96505.59;;;16.53;100.00
15229;BME280;7717;47.792;12.076;2023-03-20T09:39:45;96510.47;;;15.86;100.00
15229;BME280;7717;47.792;12.076;2023-03-20T09:45:37;96499.56;;;15.71;100.00
15229;BME280;7717;47.792;12.076;2023-03-20T09:48:18;96472.81;;;17.25;100.00
15229;BME280;7717;47.792;12.076;2023-03-20T09:51:04;96405.22;;;20.67;93.78
15229;BME280;7717;47.792;12.076;2023-03-20T09:53:39;96408.59;;;20.91;86.73
15229;BME280;7717;47.792;12.076;2023-03-20T09:56:13;96419.59;;;24.22;84.63
15229;BME280;7717;47.792;12.076;2023-03-20T09:58:41;96489.44;;;22.08;85.33
15229;BME280;7717;47.792;12.076;2023-03-20T10:01:11;96470.81;;;23.26;84.67
15229;BME280;7717;47.792;12.076;2023-03-20T10:03:58;96449.41;;;25.12;83.32
15229;BME280;7717;47.792;12.076;2023-03-20T10:06:25;96512.88;;;20.17;83.04
15229;BME280;7717;47.792;12.076;2023-03-20T10:08:51;96478.09;;;19.49;79.42
15229;BME280;7717;47.792;12.076;2023-03-20T10:19:56;96534.53;;;19.94;93.46
15229;BME280;7717;47.792;12.076;2023-03-20T10:22:23;96513.09;;;18.28;89.43
15229;BME280;7717;47.792;12.076;2023-03-20T10:25:27;96476.25;;;16.55;87.21
15229;BME280;7717;47.792;12.076;2023-03-20T10:27:58;96500.09;;;16.67;90.40
15229;BME280;7717;47.792;12.076;2023-03-20T10:30:36;96497.53;;;16.28;88.92
15229;BME280;7717;47.792;12.076;2023-03-20T10:33:24;96504.53;;;15.82;93.54
15229;BME280;7717;47.792;12.076;2023-03-20T10:38:48;96523.22;;;15.48;100.00
15229;BME280;7717;47.792;12.076;2023-03-20T10:41:20;96520.69;;;14.95;100.00
15229;BME280;7717;47.792;12.076;2023-03-20T10:43:48;96510.41;;;15.43;100.00
15229;BME280;7717;47.792;12.076;2023-03-20T10:48:59;96487.41;;;15.76;97.34
15229;BME280;7717;47.792;12.076;2023-03-20T10:51:38;96461.47;;;16.23;92.75
15229;BME280;7717;47.792;12.076;2023-03-20T10:54:20;96494.31;;;16.18;100.00
15229;BME280;7717;47.792;12.076;2023-03-20T10:56:50;96479.78;;;16.51;95.86
15229;BME280;7717;47.792;12.076;2023-03-20T10:59:22;96474.19;;;16.70;97.67
15229;BME280;7717;47.792;12.076;2023-03-20T11:01:48;96443.94;;;18.30;89.53
15229;BME280;7717;47.792;12.076;2023-03-20T11:04:13;96485.09;;;17.17;97.46
15229;BME280;7717;47.792;12.076;2023-03-20T11:06:47;96474.13;;;16.71;95.74
15229;BME280;7717;47.792;12.076;2023-03-20T11:09:22;96475.31;;;16.20;97.03
15229;BME280;7717;47.792;12.076;2023-03-20T11:11:51;96481.47;;;16.15;95.24
15229;BME280;7717;47.792;12.076;2023-03-20T11:14:21;96495.13;;;15.79;100.00
15229;BME280;7717;47.792;12.076;2023-03-20T11:16:50;96487.72;;;15.59;100.00
15229;BME280;7717;47.792;12.076;2023-03-20T11:19:18;96487.38;;;15.79;100.00
15229;BME280;7717;47.792;12.076;2023-03-20T11:21:47;96491.91;;;15.21;100.00
15229;BME280;7717;47.792;12.076;2023-03-20T11:24:26;96481.69;;;15.15;100.00
15229;BME280;7717;47.792;12.076;2023-03-20T11:27:03;96490.53;;;14.46;99.38
15229;BME280;7717;47.792;12.076;2023-03-20T11:29:30;96495.00;;;14.33;100.00
15229;BME280;7717;47.792;12.076;2023-03-20T11:32:27;96483.91;;;14.28;100.00
15229;BME280;7717;47.792;12.076;2023-03-20T11:34:55;96487.66;;;14.66;100.00
15229;BME280;7717;47.792;12.076;2023-03-20T11:37:28;96484.06;;;14.78;100.00
15229;BME280;7717;47.792;12.076;2023-03-20T11:40:20;96487.44;;;14.80;100.00
15229;BME280;7717;47.792;12.076;2023-03-20T11:42:55;96474.88;;;15.11;100.00
15229;BME280;7717;47.792;12.076;2023-03-20T11:45:21;96476.09;;;14.91;100.00
15229;BME280;7717;47.792;12.076;2023-03-20T11:47:50;96482.47;;;14.69;100.00
15229;BME280;7717;47.792;12.076;2023-03-20T11:50:33;96465.56;;;14.51;97.94
15229;BME280;7717;47.792;12.076;2023-03-20T11:53:19;96462.97;;;14.51;98.21
15229;BME280;7717;47.792;12.076;2023-03-20T11:58:30;96484.16;;;14.11;100.00
15229;BME280;7717;47.792;12.076;2023-03-20T12:00:56;96477.44;;;14.02;100.00
15229;BME280;7717;47.792;12.076;2023-03-20T12:06:18;96470.59;;;13.25;100.00
15229;BME280;7717;47.792;12.076;2023-03-20T12:08:54;96476.59;;;13.24;100.00
15229;BME280;7717;47.792;12.076;2023-03-20T12:11:54;96452.84;;;13.00;100.00
15229;BME280;7717;47.792;12.076;2023-03-20T12:14:33;96471.56;;;13.14;100.00
15229;BME280;7717;47.792;12.076;2023-03-20T12:20:15;96469.00;;;13.13;100.00
15229;BME280;7717;47.792;12.076;2023-03-20T12:22:52;96465.44;;;13.25;100.00
15229;BME280;7717;47.792;12.076;2023-03-20T12:25:23;96470.75;;;13.06;100.00
15229;BME280;7717;47.792;12.076;2023-03-20T12:28:10;96466.34;;;13.22;100.00
15229;BME280;7717;47.792;12.076;2023-03-20T12:30:50;96461.22;;;13.19;100.00
15229;BME280;7717;47.792;12.076;2023-03-20T12:35:55;96468.81;;;13.31;100.00
15229;BME280;7717;47.792;12.076;2023-03-20T12:38:26;96463.69;;;13.33;100.00
15229;BME280;7717;47.792;12.076;2023-03-20T12:40:57;96463.66;;;13.36;100.00
15229;BME280;7717;47.792;12.076;2023-03-20T12:43:31;96456.84;;;13.27;100.00
15229;BME280;7717;47.792;12.076;2023-03-20T12:46:11;96457.41;;;13.57;100.00
15229;BME280;7717;47.792;12.076;2023-03-20T12:48:58;96454.25;;;13.34;100.00
15229;BME280;7717;47.792;12.076;2023-03-20T12:51:53;96457.78;;;13.20;100.00
15229;BME280;7717;47.792;12.076;2023-03-20T13:05:42;96454.59;;;13.77;100.00
15229;BME280;7717;47.792;12.076;2023-03-20T13:11:38;96451.50;;;13.50;100.00
15229;BME280;7717;47.792;12.076;2023-03-20T13:13:53;96443.69;;;13.57;100.00
15229;BME280;7717;47.792;12.076;2023-03-20T13:19:10;96444.00;;;13.99;100.00
15229;BME280;7717;47.792;12.076;2023-03-20T13:21:47;96442.88;;;14.17;100.00
15229;BME280;7717;47.792;12.076;2023-03-20T13:24:32;96442.06;;;14.72;100.00
15229;BME280;7717;47.792;12.076;2023-03-20T13:35:29;96440.97;;;14.84;100.00
15229;BME280;7717;47.792;12.076;2023-03-20T13:38:06;96409.13;;;14.88;95.40
15229;BME280;7717;47.792;12.076;2023-03-20T13:40:45;96434.97;;;15.32;100.00
15229;BME280;7717;47.792;12.076;2023-03-20T13:43:25;96408.91;;;14.49;95.84
15229;BME280;7717;47.792;12.076;2023-03-20T13:46:06;96435.34;;;14.62;99.62
15229;BME280;7717;47.792;12.076;2023-03-20T13:48:41;96426.97;;;14.48;100.00
15229;BME280;7717;47.792;12.076;2023-03-20T13:51:21;96420.47;;;14.22;99.34
15229;BME280;7717;47.792;12.076;2023-03-20T13:53:56;96436.50;;;14.43;100.00
15229;BME280;7717;47.792;12.076;2023-03-20T13:56:43;96441.88;;;14.29;100.00
15229;BME280;7717;47.792;12.076;2023-03-20T14:04:50;96431.88;;;14.07;99.41
15229;BME280;7717;47.792;12.076;2023-03-20T14:07:33;96422.19;;;14.25;98.99
15229;BME280;7717;47.792;12.076;2023-03-20T14:12:52;96430.06;;;14.14;100.00
15229;BME280;7717;47.792;12.076;2023-03-20T14:15:20;96439.91;;;14.43;100.00
15229;BME280;7717;47.792;12.076;2023-03-20T14:17:46;96413.50;;;14.30;100.00
15229;BME280;7717;47.792;12.076;2023-03-20T14:20:27;96403.72;;;14.52;98.70
15229;BME280;7717;47.792;12.076;2023-03-20T14:22:55;96419.53;;;14.29;97.98
15229;BME280;7717;47.792;12.076;2023-03-20T14:25:22;96419.88;;;14.62;100.00
15229;BME280;7717;47.792;12.076;2023-03-20T14:27:59;96398.47;;;14.60;96.78
15229;BME280;7717;47.792;12.076;2023-03-20T14:33:04;96399.94;;;14.73;95.22
15229;BME280;7717;47.792;12.076;2023-03-20T14:35:35;96413.41;;;14.89;100.00
15229;BME280;7717;47.792;12.076;2023-03-20T14:38:14;96407.38;;;14.90;99.68
15229;BME280;7717;47.792;12.076;2023-03-20T14:41:04;96384.22;;;14.87;95.30
15229;BME280;7717;47.792;12.076;2023-03-20T14:46:20;96395.63;;;15.64;97.90
15229;BME280;7717;47.792;12.076;2023-03-20T14:48:52;96394.56;;;15.31;95.10
15229;BME280;7717;47.792;12.076;2023-03-20T14:51:45;96377.66;;;15.18;93.08
15229;BME280;7717;47.792;12.076;2023-03-20T14:54:28;96380.38;;;15.54;95.60